sensor_id;sensor_type;location;lat;lon;timestamp;P1;durP1;ratioP1;P2;durP2;ratioP2
14326;SDS011;7247;53.330;-1.180;2023-08-06T00:00:11;10.73;;;4.90;;
14326;SDS011;7247;53.330;-1.180;2023-08-06T00:02:38;9.40;;;4.83;;
14326;SDS011;7247;53.330;-1.180;2023-08-06T00:05:05;7.30;;;4.30;;
14326;SDS011;7247;53.330;-1.180;2023-08-06T00:07:31;6.97;;;4.43;;
14326;SDS011;7247;53.330;-1.180;2023-08-06T00:09:57;7.50;;;4.40;;
14326;SDS011;7247;53.330;-1.180;2023-08-06T00:12:24;7.70;;;4.40;;
14326;SDS011;7247;53.330;-1.180;2023-08-06T00:14:52;6.87;;;4.20;;
14326;SDS011;7247;53.330;-1.180;2023-08-06T00:17:19;6.67;;;4.57;;
14326;SDS011;7247;53.330;-1.180;2023-08-06T00:19:45;5.87;;;4.20;;
14326;SDS011;7247;53.330;-1.180;2023-08-06T00:22:11;6.33;;;3.70;;
14326;SDS011;7247;53.330;-1.180;2023-08-06T00:24:38;9.47;;;4.63;;
14326;SDS011;7247;53.330;-1.180;2023-08-06T00:27:04;6.20;;;4.07;;
14326;SDS011;7247;53.330;-1.180;2023-08-06T00:29:31;10.60;;;4.20;;
14326;SDS011;7247;53.330;-1.180;2023-08-06T00:31:58;7.57;;;4.60;;
14326;SDS011;7247;53.330;-1.180;2023-08-06T00:34:25;8.60;;;4.03;;
14326;SDS011;7247;53.330;-1.180;2023-08-06T00:36:51;7.10;;;4.10;;
14326;SDS011;7247;53.330;-1.180;2023-08-06T00:39:18;8.83;;;4.20;;
14326;SDS011;7247;53.330;-1.180;2023-08-06T00:41:45;6.60;;;4.47;;
14326;SDS011;7247;53.330;-1.180;2023-08-06T00:44:11;6.27;;;3.47;;
14326;SDS011;7247;53.330;-1.180;2023-08-06T00:46:37;6.97;;;3.87;;
14326;SDS011;7247;53.330;-1.180;2023-08-06T00:49:06;9.10;;;4.37;;
14326;SDS011;7247;53.330;-1.180;2023-08-06T00:51:33;9.97;;;4.53;;
14326;SDS011;7247;53.330;-1.180;2023-08-06T00:54:00;6.63;;;4.33;;
14326;SDS011;7247;53.330;-1.180;2023-08-06T00:56:27;8.80;;;3.97;;
14326;SDS011;7247;53.330;-1.180;2023-08-06T00:58:53;7.50;;;4.00;;
14326;SDS011;7247;53.330;-1.180;2023-08-06T01:01:20;7.60;;;3.57;;
14326;SDS011;7247;53.330;-1.180;2023-08-06T01:03:46;6.53;;;3.70;;
14326;SDS011;7247;53.330;-1.180;2023-08-06T01:06:14;6.43;;;3.73;;
14326;SDS011;7247;53.330;-1.180;2023-08-06T01:08:43;6.13;;;3.80;;
14326;SDS011;7247;53.330;-1.180;2023-08-06T01:11:15;8.17;;;4.00;;
14326;SDS011;7247;53.330;-1.180;2023-08-06T01:13:45;7.43;;;3.87;;
14326;SDS011;7247;53.330;-1.180;2023-08-06T01:16:13;7.27;;;3.57;;
14326;SDS011;7247;53.330;-1.180;2023-08-06T01:18:41;8.27;;;3.73;;
14326;SDS011;7247;53.330;-1.180;2023-08-06T01:21:12;8.80;;;3.97;;
14326;SDS011;7247;53.330;-1.180;2023-08-06T01:23:39;8.73;;;4.00;;
14326;SDS011;7247;53.330;-1.180;2023-08-06T01:26:08;7.50;;;3.50;;
14326;SDS011;7247;53.330;-1.180;2023-08-06T01:28:39;5.90;;;3.70;;
14326;SDS011;7247;53.330;-1.180;2023-08-06T01:31:07;6.07;;;3.57;;
14326;SDS011;7247;53.330;-1.180;2023-08-06T01:33:36;5.87;;;3.93;;
14326;SDS011;7247;53.330;-1.180;2023-08-06T01:36:06;7.50;;;3.80;;
14326;SDS011;7247;53.330;-1.180;2023-08-06T01:38:34;7.43;;;4.27;;
14326;SDS011;7247;53.330;-1.180;2023-08-06T01:41:00;7.53;;;4.03;;
14326;SDS011;7247;53.330;-1.180;2023-08-06T01:43:27;8.73;;;3.77;;
14326;SDS011;7247;53.330;-1.180;2023-08-06T01:45:53;8.90;;;4.00;;
14326;SDS011;7247;53.330;-1.180;2023-08-06T01:48:19;6.93;;;4.00;;
14326;SDS011;7247;53.330;-1.180;2023-08-06T01:50:46;11.80;;;4.00;;
14326;SDS011;7247;53.330;-1.180;2023-08-06T01:53:12;5.43;;;3.57;;
14326;SDS011;7247;53.330;-1.180;2023-08-06T01:55:40;5.97;;;3.63;;
14326;SDS011;7247;53.330;-1.180;2023-08-06T01:58:06;4.53;;;3.67;;
14326;SDS011;7247;53.330;-1.180;2023-08-06T02:00:33;6.33;;;4.00;;
14326;SDS011;7247;53.330;-1.180;2023-08-06T02:02:59;7.23;;;3.77;;
14326;SDS011;7247;53.330;-1.180;2023-08-06T02:05:26;9.70;;;4.40;;
14326;SDS011;7247;53.330;-1.180;2023-08-06T02:07:52;5.97;;;4.00;;
14326;SDS011;7247;53.330;-1.180;2023-08-06T02:10:19;6.57;;;3.97;;
14326;SDS011;7247;53.330;-1.180;2023-08-06T02:12:46;7.97;;;5.20;;
14326;SDS011;7247;53.330;-1.180;2023-08-06T02:15:13;7.70;;;4.60;;
14326;SDS011;7247;53.330;-1.180;2023-08-06T02:17:39;7.07;;;4.30;;
14326;SDS011;7247;53.330;-1.180;2023-08-06T02:20:06;6.97;;;4.00;;
14326;SDS011;7247;53.330;-1.180;2023-08-06T02:22:33;7.27;;;4.33;;
14326;SDS011;7247;53.330;-1.180;2023-08-06T02:24:59;8.67;;;4.37;;
14326;SDS011;7247;53.330;-1.180;2023-08-06T02:27:25;7.00;;;4.00;;
14326;SDS011;7247;53.330;-1.180;2023-08-06T02:29:53;8.33;;;4.17;;
14326;SDS011;7247;53.330;-1.180;2023-08-06T02:32:20;7.37;;;3.77;;
14326;SDS011;7247;53.330;-1.180;2023-08-06T02:34:46;7.30;;;4.23;;
14326;SDS011;7247;53.330;-1.180;2023-08-06T02:37:12;6.17;;;4.07;;
14326;SDS011;7247;53.330;-1.180;2023-08-06T02:39:39;7.27;;;4.57;;
14326;SDS011;7247;53.330;-1.180;2023-08-06T02:42:06;5.47;;;3.73;;
14326;SDS011;7247;53.330;-1.180;2023-08-06T02:44:32;5.80;;;3.90;;
14326;SDS011;7247;53.330;-1.180;2023-08-06T02:47:00;5.67;;;4.13;;
14326;SDS011;7247;53.330;-1.180;2023-08-06T02:49:26;8.47;;;4.10;;
14326;SDS011;7247;53.330;-1.180;2023-08-06T02:51:53;6.73;;;4.13;;
14326;SDS011;7247;53.330;-1.180;2023-08-06T02:54:19;8.77;;;4.67;;
14326;SDS011;7247;53.330;-1.180;2023-08-06T02:56:46;8.60;;;4.57;;
14326;SDS011;7247;53.330;-1.180;2023-08-06T02:59:12;7.73;;;4.87;;
14326;SDS011;7247;53.330;-1.180;2023-08-06T03:01:39;6.27;;;4.40;;
14326;SDS011;7247;53.330;-1.180;2023-08-06T03:04:07;7.07;;;3.87;;
14326;SDS011;7247;53.330;-1.180;2023-08-06T03:06:33;12.07;;;4.50;;
14326;SDS011;7247;53.330;-1.180;2023-08-06T03:08:59;5.90;;;4.17;;
14326;SDS011;7247;53.330;-1.180;2023-08-06T03:11:26;5.73;;;4.07;;
14326;SDS011;7247;53.330;-1.180;2023-08-06T03:13:52;8.40;;;3.93;;
14326;SDS011;7247;53.330;-1.180;2023-08-06T03:16:19;8.47;;;4.00;;
14326;SDS011;7247;53.330;-1.180;2023-08-06T03:18:45;6.17;;;4.13;;
14326;SDS011;7247;53.330;-1.180;2023-08-06T03:21:13;6.50;;;4.00;;
14326;SDS011;7247;53.330;-1.180;2023-08-06T03:23:40;8.67;;;4.70;;
14326;SDS011;7247;53.330;-1.180;2023-08-06T03:26:07;5.27;;;3.90;;
14326;SDS011;7247;53.330;-1.180;2023-08-06T03:28:33;8.00;;;4.73;;
14326;SDS011;7247;53.330;-1.180;2023-08-06T03:31:00;4.87;;;4.00;;
14326;SDS011;7247;53.330;-1.180;2023-08-06T03:33:26;9.17;;;4.17;;
14326;SDS011;7247;53.330;-1.180;2023-08-06T03:35:53;7.90;;;4.57;;
14326;SDS011;7247;53.330;-1.180;2023-08-06T03:38:20;6.07;;;4.23;;
14326;SDS011;7247;53.330;-1.180;2023-08-06T03:40:47;10.57;;;5.30;;
14326;SDS011;7247;53.330;-1.180;2023-08-06T03:43:14;7.53;;;4.40;;
14326;SDS011;7247;53.330;-1.180;2023-08-06T03:45:40;9.77;;;4.73;;
14326;SDS011;7247;53.330;-1.180;2023-08-06T03:48:07;7.07;;;4.43;;
14326;SDS011;7247;53.330;-1.180;2023-08-06T03:50:33;10.17;;;5.23;;
14326;SDS011;7247;53.330;-1.180;2023-08-06T03:53:00;9.40;;;4.73;;
14326;SDS011;7247;53.330;-1.180;2023-08-06T03:55:28;8.00;;;4.40;;
14326;SDS011;7247;53.330;-1.180;2023-08-06T03:57:54;9.43;;;4.47;;
14326;SDS011;7247;53.330;-1.180;2023-08-06T04:00:21;9.27;;;4.60;;
14326;SDS011;7247;53.330;-1.180;2023-08-06T04:02:47;7.67;;;4.50;;
14326;SDS011;7247;53.330;-1.180;2023-08-06T04:05:14;8.80;;;4.67;;
14326;SDS011;7247;53.330;-1.180;2023-08-06T04:07:40;7.70;;;4.40;;
14326;SDS011;7247;53.330;-1.180;2023-08-06T04:10:07;6.43;;;4.40;;
14326;SDS011;7247;53.330;-1.180;2023-08-06T04:12:35;8.97;;;4.43;;
14326;SDS011;7247;53.330;-1.180;2023-08-06T04:15:04;7.90;;;4.63;;
14326;SDS011;7247;53.330;-1.180;2023-08-06T04:17:31;7.37;;;4.90;;
14326;SDS011;7247;53.330;-1.180;2023-08-06T04:19:57;6.93;;;4.67;;
14326;SDS011;7247;53.330;-1.180;2023-08-06T04:22:24;6.13;;;4.37;;
14326;SDS011;7247;53.330;-1.180;2023-08-06T04:24:50;6.37;;;4.53;;
14326;SDS011;7247;53.330;-1.180;2023-08-06T04:27:18;7.87;;;4.50;;
14326;SDS011;7247;53.330;-1.180;2023-08-06T04:29:46;7.10;;;4.87;;
14326;SDS011;7247;53.330;-1.180;2023-08-06T04:32:12;6.93;;;4.57;;
14326;SDS011;7247;53.330;-1.180;2023-08-06T04:34:39;10.53;;;4.50;;
14326;SDS011;7247;53.330;-1.180;2023-08-06T04:37:05;7.37;;;4.20;;
14326;SDS011;7247;53.330;-1.180;2023-08-06T04:39:32;6.83;;;4.20;;
14326;SDS011;7247;53.330;-1.180;2023-08-06T04:41:58;5.10;;;3.83;;
14326;SDS011;7247;53.330;-1.180;2023-08-06T04:44:25;6.40;;;4.13;;
14326;SDS011;7247;53.330;-1.180;2023-08-06T04:46:52;7.93;;;4.47;;
14326;SDS011;7247;53.330;-1.180;2023-08-06T04:49:19;6.53;;;4.03;;
14326;SDS011;7247;53.330;-1.180;2023-08-06T04:51:46;8.53;;;4.43;;
14326;SDS011;7247;53.330;-1.180;2023-08-06T04:54:12;8.47;;;4.20;;
14326;SDS011;7247;53.330;-1.180;2023-08-06T04:56:38;4.10;;;3.63;;
14326;SDS011;7247;53.330;-1.180;2023-08-06T04:59:05;6.77;;;4.50;;
14326;SDS011;7247;53.330;-1.180;2023-08-06T05:01:32;8.30;;;4.40;;
14326;SDS011;7247;53.330;-1.180;2023-08-06T05:03:59;7.07;;;4.13;;
14326;SDS011;7247;53.330;-1.180;2023-08-06T05:06:26;6.03;;;3.97;;
14326;SDS011;7247;53.330;-1.180;2023-08-06T05:08:52;6.33;;;3.57;;
14326;SDS011;7247;53.330;-1.180;2023-08-06T05:11:19;6.80;;;4.00;;
14326;SDS011;7247;53.330;-1.180;2023-08-06T05:13:45;6.13;;;3.87;;
14326;SDS011;7247;53.330;-1.180;2023-08-06T05:16:11;5.70;;;3.80;;
14326;SDS011;7247;53.330;-1.180;2023-08-06T05:18:38;7.87;;;3.93;;
14326;SDS011;7247;53.330;-1.180;2023-08-06T05:21:05;7.70;;;3.87;;
14326;SDS011;7247;53.330;-1.180;2023-08-06T05:23:32;6.23;;;3.80;;
14326;SDS011;7247;53.330;-1.180;2023-08-06T05:25:58;6.70;;;3.83;;
14326;SDS011;7247;53.330;-1.180;2023-08-06T05:28:25;5.53;;;4.10;;
14326;SDS011;7247;53.330;-1.180;2023-08-06T05:30:51;8.43;;;4.10;;
14326;SDS011;7247;53.330;-1.180;2023-08-06T05:33:17;6.43;;;3.57;;
14326;SDS011;7247;53.330;-1.180;2023-08-06T05:35:44;5.43;;;3.60;;
14326;SDS011;7247;53.330;-1.180;2023-08-06T05:38:12;5.77;;;3.63;;
14326;SDS011;7247;53.330;-1.180;2023-08-06T05:40:38;7.83;;;3.87;;
14326;SDS011;7247;53.330;-1.180;2023-08-06T05:43:04;5.23;;;3.70;;
14326;SDS011;7247;53.330;-1.180;2023-08-06T05:45:31;4.57;;;3.87;;
14326;SDS011;7247;53.330;-1.180;2023-08-06T05:47:57;4.27;;;3.30;;
14326;SDS011;7247;53.330;-1.180;2023-08-06T05:50:23;4.43;;;3.70;;
14326;SDS011;7247;53.330;-1.180;2023-08-06T05:52:50;5.57;;;3.20;;
14326;SDS011;7247;53.330;-1.180;2023-08-06T05:55:18;4.30;;;3.40;;
14326;SDS011;7247;53.330;-1.180;2023-08-06T05:57:44;5.20;;;3.57;;
14326;SDS011;7247;53.330;-1.180;2023-08-06T06:00:11;6.43;;;3.80;;
14326;SDS011;7247;53.330;-1.180;2023-08-06T06:02:37;9.07;;;3.80;;
14326;SDS011;7247;53.330;-1.180;2023-08-06T06:05:04;5.40;;;3.40;;
14326;SDS011;7247;53.330;-1.180;2023-08-06T06:07:30;4.07;;;3.40;;
14326;SDS011;7247;53.330;-1.180;2023-08-06T06:09:57;5.80;;;3.50;;
14326;SDS011;7247;53.330;-1.180;2023-08-06T06:12:25;6.17;;;3.20;;
14326;SDS011;7247;53.330;-1.180;2023-08-06T06:14:51;5.73;;;3.30;;
14326;SDS011;7247;53.330;-1.180;2023-08-06T06:17:18;4.37;;;3.40;;
14326;SDS011;7247;53.330;-1.180;2023-08-06T06:19:44;3.23;;;2.67;;
14326;SDS011;7247;53.330;-1.180;2023-08-06T06:22:11;5.47;;;3.10;;
14326;SDS011;7247;53.330;-1.180;2023-08-06T06:24:38;4.63;;;3.03;;
14326;SDS011;7247;53.330;-1.180;2023-08-06T06:27:04;4.27;;;2.83;;
14326;SDS011;7247;53.330;-1.180;2023-08-06T06:29:32;4.53;;;2.80;;
14326;SDS011;7247;53.330;-1.180;2023-08-06T06:31:59;4.20;;;2.87;;
14326;SDS011;7247;53.330;-1.180;2023-08-06T06:34:25;3.90;;;2.77;;
14326;SDS011;7247;53.330;-1.180;2023-08-06T06:36:51;2.90;;;2.57;;
14326;SDS011;7247;53.330;-1.180;2023-08-06T06:39:18;5.40;;;2.77;;
14326;SDS011;7247;53.330;-1.180;2023-08-06T06:41:44;4.37;;;2.80;;
14326;SDS011;7247;53.330;-1.180;2023-08-06T06:44:11;3.03;;;2.60;;
14326;SDS011;7247;53.330;-1.180;2023-08-06T06:46:38;6.27;;;2.67;;
14326;SDS011;7247;53.330;-1.180;2023-08-06T06:49:05;5.20;;;2.70;;
14326;SDS011;7247;53.330;-1.180;2023-08-06T06:51:31;4.40;;;2.90;;
14326;SDS011;7247;53.330;-1.180;2023-08-06T06:53:58;4.13;;;2.50;;
14326;SDS011;7247;53.330;-1.180;2023-08-06T06:56:24;4.00;;;2.20;;
14326;SDS011;7247;53.330;-1.180;2023-08-06T06:58:50;4.63;;;2.50;;
14326;SDS011;7247;53.330;-1.180;2023-08-06T07:01:17;4.70;;;2.70;;
14326;SDS011;7247;53.330;-1.180;2023-08-06T07:03:44;4.10;;;2.60;;
14326;SDS011;7247;53.330;-1.180;2023-08-06T07:06:11;5.60;;;2.47;;
14326;SDS011;7247;53.330;-1.180;2023-08-06T07:08:37;4.40;;;2.30;;
14326;SDS011;7247;53.330;-1.180;2023-08-06T07:11:04;2.53;;;2.27;;
14326;SDS011;7247;53.330;-1.180;2023-08-06T07:13:31;3.50;;;2.30;;
14326;SDS011;7247;53.330;-1.180;2023-08-06T07:15:58;3.23;;;2.33;;
14326;SDS011;7247;53.330;-1.180;2023-08-06T07:18:24;4.43;;;2.20;;
14326;SDS011;7247;53.330;-1.180;2023-08-06T07:20:53;3.27;;;2.37;;
14326;SDS011;7247;53.330;-1.180;2023-08-06T07:23:19;3.47;;;2.30;;
14326;SDS011;7247;53.330;-1.180;2023-08-06T07:25:46;3.50;;;2.43;;
14326;SDS011;7247;53.330;-1.180;2023-08-06T07:28:12;3.37;;;2.40;;
14326;SDS011;7247;53.330;-1.180;2023-08-06T07:30:39;2.90;;;2.27;;
14326;SDS011;7247;53.330;-1.180;2023-08-06T07:33:05;4.70;;;2.30;;
14326;SDS011;7247;53.330;-1.180;2023-08-06T07:35:32;3.20;;;2.20;;
14326;SDS011;7247;53.330;-1.180;2023-08-06T07:38:00;3.00;;;2.43;;
14326;SDS011;7247;53.330;-1.180;2023-08-06T07:40:26;4.60;;;2.13;;
14326;SDS011;7247;53.330;-1.180;2023-08-06T07:42:53;4.90;;;2.10;;
14326;SDS011;7247;53.330;-1.180;2023-08-06T07:45:19;3.37;;;2.30;;
14326;SDS011;7247;53.330;-1.180;2023-08-06T07:47:45;3.63;;;2.30;;
14326;SDS011;7247;53.330;-1.180;2023-08-06T07:50:12;3.63;;;2.10;;
14326;SDS011;7247;53.330;-1.180;2023-08-06T07:52:39;2.87;;;2.20;;
14326;SDS011;7247;53.330;-1.180;2023-08-06T07:55:07;2.67;;;2.00;;
14326;SDS011;7247;53.330;-1.180;2023-08-06T07:57:33;3.23;;;2.10;;
14326;SDS011;7247;53.330;-1.180;2023-08-06T08:00:00;7.13;;;2.20;;
14326;SDS011;7247;53.330;-1.180;2023-08-06T08:02:27;2.80;;;1.90;;
14326;SDS011;7247;53.330;-1.180;2023-08-06T08:04:55;2.20;;;2.00;;
14326;SDS011;7247;53.330;-1.180;2023-08-06T08:07:21;2.37;;;2.00;;
14326;SDS011;7247;53.330;-1.180;2023-08-06T08:09:48;3.17;;;1.70;;
14326;SDS011;7247;53.330;-1.180;2023-08-06T08:12:16;3.17;;;2.10;;
14326;SDS011;7247;53.330;-1.180;2023-08-06T08:14:42;5.43;;;2.03;;
14326;SDS011;7247;53.330;-1.180;2023-08-06T08:17:10;2.73;;;2.10;;
14326;SDS011;7247;53.330;-1.180;2023-08-06T08:19:36;3.17;;;2.07;;
14326;SDS011;7247;53.330;-1.180;2023-08-06T08:22:03;2.90;;;1.90;;
14326;SDS011;7247;53.330;-1.180;2023-08-06T08:24:29;3.70;;;2.10;;
14326;SDS011;7247;53.330;-1.180;2023-08-06T08:26:56;2.20;;;1.90;;
14326;SDS011;7247;53.330;-1.180;2023-08-06T08:29:24;2.73;;;2.30;;
14326;SDS011;7247;53.330;-1.180;2023-08-06T08:31:50;2.33;;;1.80;;
14326;SDS011;7247;53.330;-1.180;2023-08-06T08:34:17;5.83;;;2.00;;
14326;SDS011;7247;53.330;-1.180;2023-08-06T08:36:43;4.27;;;2.13;;
14326;SDS011;7247;53.330;-1.180;2023-08-06T08:39:12;2.87;;;1.87;;
14326;SDS011;7247;53.330;-1.180;2023-08-06T08:41:38;4.63;;;1.90;;
14326;SDS011;7247;53.330;-1.180;2023-08-06T08:44:05;3.27;;;2.17;;
14326;SDS011;7247;53.330;-1.180;2023-08-06T08:46:35;2.90;;;1.80;;
14326;SDS011;7247;53.330;-1.180;2023-08-06T08:49:02;2.17;;;1.93;;
14326;SDS011;7247;53.330;-1.180;2023-08-06T08:51:28;3.50;;;2.00;;
14326;SDS011;7247;53.330;-1.180;2023-08-06T08:53:55;2.40;;;1.90;;
14326;SDS011;7247;53.330;-1.180;2023-08-06T08:56:22;2.53;;;2.00;;
14326;SDS011;7247;53.330;-1.180;2023-08-06T08:58:49;2.47;;;1.80;;
14326;SDS011;7247;53.330;-1.180;2023-08-06T09:01:15;3.20;;;1.70;;
14326;SDS011;7247;53.330;-1.180;2023-08-06T09:03:43;2.90;;;1.90;;
14326;SDS011;7247;53.330;-1.180;2023-08-06T09:06:10;2.83;;;2.00;;
14326;SDS011;7247;53.330;-1.180;2023-08-06T09:08:41;2.17;;;1.97;;
14326;SDS011;7247;53.330;-1.180;2023-08-06T09:11:09;2.80;;;2.00;;
14326;SDS011;7247;53.330;-1.180;2023-08-06T09:13:36;2.57;;;1.83;;
14326;SDS011;7247;53.330;-1.180;2023-08-06T09:16:03;2.77;;;2.10;;
14326;SDS011;7247;53.330;-1.180;2023-08-06T09:18:30;2.47;;;2.03;;
14326;SDS011;7247;53.330;-1.180;2023-08-06T09:20:58;2.63;;;2.00;;
14326;SDS011;7247;53.330;-1.180;2023-08-06T09:23:27;2.27;;;1.53;;
14326;SDS011;7247;53.330;-1.180;2023-08-06T09:25:54;3.77;;;1.70;;
14326;SDS011;7247;53.330;-1.180;2023-08-06T09:28:21;2.90;;;1.73;;
14326;SDS011;7247;53.330;-1.180;2023-08-06T09:30:49;2.10;;;1.90;;
14326;SDS011;7247;53.330;-1.180;2023-08-06T09:33:17;2.97;;;1.87;;
14326;SDS011;7247;53.330;-1.180;2023-08-06T09:35:45;3.30;;;2.17;;
14326;SDS011;7247;53.330;-1.180;2023-08-06T09:38:13;2.10;;;1.90;;
14326;SDS011;7247;53.330;-1.180;2023-08-06T09:40:39;3.40;;;1.90;;
14326;SDS011;7247;53.330;-1.180;2023-08-06T09:43:06;4.03;;;1.77;;
14326;SDS011;7247;53.330;-1.180;2023-08-06T09:45:33;2.53;;;2.00;;
14326;SDS011;7247;53.330;-1.180;2023-08-06T09:47:59;2.20;;;2.00;;
14326;SDS011;7247;53.330;-1.180;2023-08-06T09:50:28;4.30;;;1.80;;
14326;SDS011;7247;53.330;-1.180;2023-08-06T09:52:55;1.77;;;1.60;;
14326;SDS011;7247;53.330;-1.180;2023-08-06T09:55:23;2.83;;;1.70;;
14326;SDS011;7247;53.330;-1.180;2023-08-06T09:57:51;2.60;;;2.00;;
14326;SDS011;7247;53.330;-1.180;2023-08-06T10:00:18;2.17;;;1.70;;
14326;SDS011;7247;53.330;-1.180;2023-08-06T10:02:45;2.90;;;1.63;;
14326;SDS011;7247;53.330;-1.180;2023-08-06T10:05:11;2.77;;;1.83;;
14326;SDS011;7247;53.330;-1.180;2023-08-06T10:07:38;2.20;;;1.80;;
14326;SDS011;7247;53.330;-1.180;2023-08-06T10:10:06;1.60;;;1.50;;
14326;SDS011;7247;53.330;-1.180;2023-08-06T10:12:37;2.83;;;1.70;;
14326;SDS011;7247;53.330;-1.180;2023-08-06T10:15:06;2.00;;;1.80;;
14326;SDS011;7247;53.330;-1.180;2023-08-06T10:17:34;3.40;;;2.00;;
14326;SDS011;7247;53.330;-1.180;2023-08-06T10:20:00;3.33;;;1.90;;
14326;SDS011;7247;53.330;-1.180;2023-08-06T10:22:27;3.50;;;2.00;;
14326;SDS011;7247;53.330;-1.180;2023-08-06T10:24:53;2.23;;;1.97;;
14326;SDS011;7247;53.330;-1.180;2023-08-06T10:27:20;3.53;;;1.90;;
14326;SDS011;7247;53.330;-1.180;2023-08-06T10:29:49;3.37;;;2.00;;
14326;SDS011;7247;53.330;-1.180;2023-08-06T10:32:15;4.03;;;2.03;;
14326;SDS011;7247;53.330;-1.180;2023-08-06T10:34:59;2.60;;;2.13;;
14326;SDS011;7247;53.330;-1.180;2023-08-06T10:37:34;2.00;;;1.80;;
14326;SDS011;7247;53.330;-1.180;2023-08-06T10:40:00;3.07;;;1.90;;
14326;SDS011;7247;53.330;-1.180;2023-08-06T10:42:27;3.57;;;2.07;;
14326;SDS011;7247;53.330;-1.180;2023-08-06T10:45:15;2.60;;;1.80;;
14326;SDS011;7247;53.330;-1.180;2023-08-06T10:47:42;3.33;;;2.00;;
14326;SDS011;7247;53.330;-1.180;2023-08-06T10:50:10;4.07;;;2.10;;
14326;SDS011;7247;53.330;-1.180;2023-08-06T10:52:37;2.07;;;1.87;;
14326;SDS011;7247;53.330;-1.180;2023-08-06T10:55:03;2.10;;;1.90;;
14326;SDS011;7247;53.330;-1.180;2023-08-06T10:57:30;2.87;;;1.77;;
14326;SDS011;7247;53.330;-1.180;2023-08-06T10:59:56;2.30;;;1.83;;
14326;SDS011;7247;53.330;-1.180;2023-08-06T11:02:24;2.07;;;1.80;;
14326;SDS011;7247;53.330;-1.180;2023-08-06T11:04:51;1.70;;;1.60;;
14326;SDS011;7247;53.330;-1.180;2023-08-06T11:07:17;2.63;;;1.83;;
14326;SDS011;7247;53.330;-1.180;2023-08-06T11:09:44;2.20;;;2.00;;
14326;SDS011;7247;53.330;-1.180;2023-08-06T11:12:10;2.77;;;1.97;;
14326;SDS011;7247;53.330;-1.180;2023-08-06T11:14:37;4.53;;;1.73;;
14326;SDS011;7247;53.330;-1.180;2023-08-06T11:17:04;3.40;;;1.80;;
14326;SDS011;7247;53.330;-1.180;2023-08-06T11:19:32;3.43;;;1.83;;
14326;SDS011;7247;53.330;-1.180;2023-08-06T11:22:00;2.37;;;1.80;;
14326;SDS011;7247;53.330;-1.180;2023-08-06T11:24:27;3.50;;;2.10;;
14326;SDS011;7247;53.330;-1.180;2023-08-06T11:26:54;2.20;;;1.87;;
14326;SDS011;7247;53.330;-1.180;2023-08-06T11:29:20;2.83;;;1.80;;
14326;SDS011;7247;53.330;-1.180;2023-08-06T11:31:48;2.27;;;1.90;;
14326;SDS011;7247;53.330;-1.180;2023-08-06T11:34:14;1.97;;;1.70;;
14326;SDS011;7247;53.330;-1.180;2023-08-06T11:36:43;2.03;;;1.57;;
14326;SDS011;7247;53.330;-1.180;2023-08-06T11:39:09;2.07;;;1.83;;
14326;SDS011;7247;53.330;-1.180;2023-08-06T11:41:36;2.40;;;2.07;;
14326;SDS011;7247;53.330;-1.180;2023-08-06T11:44:04;2.63;;;1.80;;
14326;SDS011;7247;53.330;-1.180;2023-08-06T11:49:12;2.47;;;1.90;;
14326;SDS011;7247;53.330;-1.180;2023-08-06T11:51:39;2.57;;;1.87;;
14326;SDS011;7247;53.330;-1.180;2023-08-06T11:54:06;2.77;;;1.90;;
14326;SDS011;7247;53.330;-1.180;2023-08-06T11:56:33;2.73;;;1.87;;
14326;SDS011;7247;53.330;-1.180;2023-08-06T11:59:00;2.83;;;2.00;;
14326;SDS011;7247;53.330;-1.180;2023-08-06T12:01:27;2.47;;;2.10;;
14326;SDS011;7247;53.330;-1.180;2023-08-06T12:03:58;2.37;;;2.00;;
14326;SDS011;7247;53.330;-1.180;2023-08-06T12:06:26;2.80;;;1.80;;
14326;SDS011;7247;53.330;-1.180;2023-08-06T12:08:53;3.93;;;2.00;;
14326;SDS011;7247;53.330;-1.180;2023-08-06T12:11:21;2.33;;;2.10;;
14326;SDS011;7247;53.330;-1.180;2023-08-06T12:13:50;2.30;;;2.00;;
14326;SDS011;7247;53.330;-1.180;2023-08-06T12:16:16;3.30;;;2.40;;
14326;SDS011;7247;53.330;-1.180;2023-08-06T12:18:43;2.30;;;2.10;;
14326;SDS011;7247;53.330;-1.180;2023-08-06T12:21:10;4.17;;;2.60;;
14326;SDS011;7247;53.330;-1.180;2023-08-06T12:23:36;2.87;;;1.93;;
14326;SDS011;7247;53.330;-1.180;2023-08-06T12:26:03;3.00;;;2.10;;
14326;SDS011;7247;53.330;-1.180;2023-08-06T12:28:31;3.83;;;2.20;;
14326;SDS011;7247;53.330;-1.180;2023-08-06T12:30:57;3.80;;;2.20;;
14326;SDS011;7247;53.330;-1.180;2023-08-06T12:33:23;2.50;;;2.27;;
14326;SDS011;7247;53.330;-1.180;2023-08-06T12:35:50;2.63;;;2.10;;
14326;SDS011;7247;53.330;-1.180;2023-08-06T12:38:18;2.87;;;2.10;;
14326;SDS011;7247;53.330;-1.180;2023-08-06T12:40:44;3.10;;;2.13;;
14326;SDS011;7247;53.330;-1.180;2023-08-06T12:43:11;3.10;;;2.23;;
14326;SDS011;7247;53.330;-1.180;2023-08-06T12:45:38;3.03;;;2.53;;
14326;SDS011;7247;53.330;-1.180;2023-08-06T12:48:05;2.40;;;2.20;;
14326;SDS011;7247;53.330;-1.180;2023-08-06T12:50:31;3.00;;;2.70;;
14326;SDS011;7247;53.330;-1.180;2023-08-06T12:52:59;2.53;;;2.30;;
14326;SDS011;7247;53.330;-1.180;2023-08-06T12:55:26;2.80;;;2.20;;
14326;SDS011;7247;53.330;-1.180;2023-08-06T12:57:52;3.47;;;2.43;;
14326;SDS011;7247;53.330;-1.180;2023-08-06T13:00:18;5.00;;;2.63;;
14326;SDS011;7247;53.330;-1.180;2023-08-06T13:02:46;3.90;;;2.63;;
14326;SDS011;7247;53.330;-1.180;2023-08-06T13:05:12;2.60;;;2.40;;
14326;SDS011;7247;53.330;-1.180;2023-08-06T13:07:39;3.77;;;3.00;;
14326;SDS011;7247;53.330;-1.180;2023-08-06T13:10:07;3.43;;;2.70;;
14326;SDS011;7247;53.330;-1.180;2023-08-06T13:12:34;4.20;;;2.70;;
14326;SDS011;7247;53.330;-1.180;2023-08-06T13:15:00;4.00;;;2.70;;
14326;SDS011;7247;53.330;-1.180;2023-08-06T13:17:26;5.27;;;2.80;;
14326;SDS011;7247;53.330;-1.180;2023-08-06T13:19:54;3.03;;;2.73;;
14326;SDS011;7247;53.330;-1.180;2023-08-06T13:22:21;2.67;;;2.30;;
14326;SDS011;7247;53.330;-1.180;2023-08-06T13:24:47;3.23;;;2.60;;
14326;SDS011;7247;53.330;-1.180;2023-08-06T13:27:13;3.43;;;2.90;;
14326;SDS011;7247;53.330;-1.180;2023-08-06T13:29:40;2.93;;;2.20;;
14326;SDS011;7247;53.330;-1.180;2023-08-06T13:32:06;3.07;;;2.37;;
14326;SDS011;7247;53.330;-1.180;2023-08-06T13:34:33;3.30;;;2.43;;
14326;SDS011;7247;53.330;-1.180;2023-08-06T13:37:00;3.27;;;2.40;;
14326;SDS011;7247;53.330;-1.180;2023-08-06T13:39:27;3.50;;;2.00;;
14326;SDS011;7247;53.330;-1.180;2023-08-06T13:41:53;3.00;;;1.90;;
14326;SDS011;7247;53.330;-1.180;2023-08-06T13:44:20;2.40;;;1.77;;
14326;SDS011;7247;53.330;-1.180;2023-08-06T13:46:46;3.43;;;2.07;;
14326;SDS011;7247;53.330;-1.180;2023-08-06T13:49:13;2.03;;;1.83;;
14326;SDS011;7247;53.330;-1.180;2023-08-06T13:51:39;2.50;;;2.07;;
14326;SDS011;7247;53.330;-1.180;2023-08-06T13:54:07;2.73;;;1.90;;
14326;SDS011;7247;53.330;-1.180;2023-08-06T13:56:34;3.27;;;2.13;;
14326;SDS011;7247;53.330;-1.180;2023-08-06T13:59:02;2.57;;;2.30;;
14326;SDS011;7247;53.330;-1.180;2023-08-06T14:01:29;2.20;;;2.00;;
14326;SDS011;7247;53.330;-1.180;2023-08-06T14:03:55;2.23;;;1.63;;
14326;SDS011;7247;53.330;-1.180;2023-08-06T14:06:21;1.80;;;1.70;;
14326;SDS011;7247;53.330;-1.180;2023-08-06T14:08:48;2.23;;;1.70;;
14326;SDS011;7247;53.330;-1.180;2023-08-06T14:11:15;2.70;;;1.50;;
14326;SDS011;7247;53.330;-1.180;2023-08-06T14:13:42;2.83;;;1.90;;
14326;SDS011;7247;53.330;-1.180;2023-08-06T14:16:08;2.23;;;1.87;;
14326;SDS011;7247;53.330;-1.180;2023-08-06T14:18:35;2.43;;;1.53;;
14326;SDS011;7247;53.330;-1.180;2023-08-06T14:21:03;1.83;;;1.50;;
14326;SDS011;7247;53.330;-1.180;2023-08-06T14:23:29;1.80;;;1.40;;
14326;SDS011;7247;53.330;-1.180;2023-08-06T14:25:56;2.37;;;1.70;;
14326;SDS011;7247;53.330;-1.180;2023-08-06T14:28:24;1.93;;;1.60;;
14326;SDS011;7247;53.330;-1.180;2023-08-06T14:30:50;2.90;;;1.70;;
14326;SDS011;7247;53.330;-1.180;2023-08-06T14:33:16;2.10;;;1.90;;
14326;SDS011;7247;53.330;-1.180;2023-08-06T14:35:43;1.97;;;1.60;;
14326;SDS011;7247;53.330;-1.180;2023-08-06T14:38:09;2.53;;;1.50;;
14326;SDS011;7247;53.330;-1.180;2023-08-06T14:40:36;1.83;;;1.60;;
14326;SDS011;7247;53.330;-1.180;2023-08-06T14:43:03;3.27;;;1.50;;
14326;SDS011;7247;53.330;-1.180;2023-08-06T14:45:31;2.00;;;1.57;;
14326;SDS011;7247;53.330;-1.180;2023-08-06T14:47:57;2.40;;;1.50;;